Time;durP1;ratioP1;P1;durP2;ratioP2;P2;SDS_P1;SDS_P2;PMS_P1;PMS_P2;Temp;Humidity;BMP_temperature;BMP_pressure;BME280_temperature;BME280_humidity;BME280_pressure;Samples;Min_cycle;Max_cycle;Signal;HPM_P1;HPM_P2
2022/07/17 00:01:58;;;;;;;;;3.33;3.33;;;;;26.55;30.24;102106.50;5097119;27;45572;-73
2022/07/17 00:04:23;;;;;;;;;4.00;3.00;;;;;26.54;30.82;102116.56;5096874;27;45506;-73
2022/07/17 00:06:49;;;;;;;;;2.00;2.00;;;;;26.46;30.22;102103.56;5096231;27;45742;-73
2022/07/17 00:09:14;;;;;;;;;4.00;3.00;;;;;26.41;30.74;102107.69;5078549;27;45679;-73
2022/07/17 00:11:39;;;;;;;;;2.00;2.00;;;;;26.38;31.47;102102.50;5096874;27;45425;-73
2022/07/17 00:14:05;;;;;;;;;2.33;2.33;;;;;26.41;31.03;102110.44;5096687;27;47040;-73
2022/07/17 00:16:31;;;;;;;;;3.67;2.00;;;;;26.38;31.36;102103.38;5096490;27;45592;-73
2022/07/17 00:18:56;;;;;;;;;3.00;3.00;;;;;26.34;30.82;102101.94;5096950;27;45512;-73
2022/07/17 00:21:21;;;;;;;;;2.33;2.33;;;;;26.26;30.67;102091.66;5096747;27;45518;-73
2022/07/17 00:23:47;;;;;;;;;5.00;3.00;;;;;26.28;31.35;102118.88;5096216;27;47065;-73
2022/07/17 00:26:12;;;;;;;;;2.67;2.67;;;;;26.26;31.31;102119.00;5096429;27;45470;-73
2022/07/17 00:28:38;;;;;;;;;2.33;2.33;;;;;26.17;31.49;102103.41;5096538;27;45470;-73
2022/07/17 00:31:03;;;;;;;;;2.00;2.00;;;;;26.21;31.72;102113.09;5096849;27;45428;-73
2022/07/17 00:33:28;;;;;;;;;2.00;2.00;;;;;26.18;31.36;102107.03;5095985;27;47060;-73
2022/07/17 00:35:54;;;;;;;;;2.00;2.00;;;;;26.10;31.55;102096.78;5095692;27;49736;-73
2022/07/17 00:38:19;;;;;;;;;1.00;1.00;;;;;26.17;31.68;102117.09;5096209;27;46246;-73
2022/07/17 00:40:44;;;;;;;;;2.00;2.00;;;;;26.03;31.55;102099.16;5077868;27;45437;-73
2022/07/17 00:43:10;;;;;;;;;2.67;2.33;;;;;26.08;31.96;102109.69;5095854;27;45963;-73
2022/07/17 00:45:35;;;;;;;;;1.00;1.00;;;;;25.98;31.19;102097.84;5096542;27;45467;-73
2022/07/17 00:48:03;;;;;;;;;3.33;3.33;;;;;26.02;31.73;102110.25;5076296;27;45465;-73
2022/07/17 00:50:32;;;;;;;;;4.00;2.00;;;;;26.00;31.92;102110.38;5096642;27;45574;-73
2022/07/17 00:52:58;;;;;;;;;2.00;2.00;;;;;26.00;32.04;102113.13;5096152;27;45431;-73
2022/07/17 00:55:24;;;;;;;;;2.00;2.00;;;;;25.92;31.75;102104.75;5095946;27;45368;-72
2022/07/17 00:57:54;;;;;;;;;1.00;1.00;;;;;25.95;31.10;102109.91;5096384;27;45528;-73
2022/07/17 01:00:20;;;;;;;;;2.67;2.67;;;;;25.80;31.06;102092.09;5095694;27;45568;-73
2022/07/17 01:02:50;;;;;;;;;1.67;1.67;;;;;25.86;31.37;102114.31;5095661;27;46285;-73
2022/07/17 01:05:18;;;;;;;;;2.00;2.00;;;;;25.86;31.58;102111.59;5096011;27;45639;-73
2022/07/17 01:07:44;;;;;;;;;3.00;2.00;;;;;25.84;31.63;102119.00;5094623;27;45804;-73
2022/07/17 01:10:11;;;;;;;;;2.00;2.00;;;;;25.81;32.20;102110.22;5094674;27;45433;-73
2022/07/17 01:12:38;;;;;;;;;3.67;2.00;;;;;25.79;31.80;102109.50;5094101;27;46461;-73
2022/07/17 01:15:04;;;;;;;;;3.33;1.33;;;;;25.77;32.71;102116.94;5094133;27;45540;-73
2022/07/17 01:17:30;;;;;;;;;3.00;3.00;;;;;25.77;31.46;102114.22;5094293;27;45438;-73
2022/07/17 01:19:56;;;;;;;;;2.00;2.00;;;;;25.73;32.10;102108.19;5094280;27;45641;-73
2022/07/17 01:22:21;;;;;;;;;1.33;1.33;;;;;25.73;31.73;102110.00;5094041;27;45981;-73
2022/07/17 01:24:46;;;;;;;;;2.00;2.00;;;;;25.69;32.21;102112.16;5094679;27;45442;-73
2022/07/17 01:27:12;;;;;;;;;2.00;2.00;;;;;25.63;31.62;102102.63;5097541;27;45477;-73
2022/07/17 01:29:38;;;;;;;;;3.00;3.00;;;;;25.67;32.23;102117.75;5098343;27;45533;-73
2022/07/17 01:32:05;;;;;;;;;4.33;2.33;;;;;25.59;31.96;102103.91;5097908;27;47397;-73
2022/07/17 01:34:31;;;;;;;;;1.67;1.67;;;;;25.57;32.00;102103.16;5080168;27;45526;-73
2022/07/17 01:36:56;;;;;;;;;1.67;1.00;;;;;25.48;32.56;102090.31;5098130;27;45426;-73
2022/07/17 01:39:52;;;;;;;;;4.00;3.00;;;;;25.48;31.95;102091.16;5097697;27;45418;-73
2022/07/17 01:42:07;;;;;;;;;1.67;1.67;;;;;25.53;32.03;102109.88;5097270;27;45816;-73
2022/07/17 01:44:33;;;;;;;;;2.33;2.33;;;;;25.53;32.09;102111.75;5079763;27;45448;-73
2022/07/17 01:46:58;;;;;;;;;2.00;2.00;;;;;25.49;31.76;102105.66;5098268;27;45721;-73
2022/07/17 01:49:23;;;;;;;;;2.00;2.00;;;;;25.42;32.07;102107.19;5098505;27;45363;-73
2022/07/17 01:51:49;;;;;;;;;4.00;2.33;;;;;25.39;32.33;102100.13;5079439;27;47326;-73
2022/07/17 01:54:15;;;;;;;;;1.67;1.67;;;;;25.37;32.21;102098.53;5079981;27;45512;-73
2022/07/17 01:56:40;;;;;;;;;2.67;2.00;;;;;25.36;32.34;102094.09;5079534;27;45501;-73
2022/07/17 01:59:05;;;;;;;;;2.67;1.67;;;;;25.37;31.82;102098.53;5098258;27;45385;-73
2022/07/17 02:01:31;;;;;;;;;2.33;2.33;;;;;25.37;32.21;102095.81;5097640;27;47068;-72
2022/07/17 02:03:56;;;;;;;;;1.67;1.67;;;;;25.32;32.69;102096.19;5097980;27;45574;-72
2022/07/17 02:06:22;;;;;;;;;1.50;1.50;;;;;25.29;32.50;102088.28;5052412;27;1279202;-73
2022/07/17 02:08:49;;;;;;;;;2.00;2.00;;;;;25.19;32.75;102079.13;5099212;27;46964;-73
2022/07/17 02:11:15;;;;;;;;;2.67;2.67;;;;;25.25;32.09;102090.38;5080160;27;47087;-73
2022/07/17 02:13:40;;;;;;;;;2.00;2.00;;;;;25.24;32.68;102087.81;5098892;27;45428;-73
2022/07/17 02:16:06;;;;;;;;;2.00;2.00;;;;;25.14;32.43;102082.22;5080222;27;45342;-73
2022/07/17 02:18:31;;;;;;;;;2.00;2.00;;;;;25.13;32.93;102080.47;5098898;27;45486;-73
2022/07/17 02:20:57;;;;;;;;;2.00;2.00;;;;;25.11;32.58;102089.81;5098445;27;46390;-73
2022/07/17 02:23:22;;;;;;;;;2.33;2.33;;;;;25.08;33.20;102082.75;5098548;27;45480;-73
2022/07/17 02:25:48;;;;;;;;;2.00;2.00;;;;;24.92;33.22;102069.50;5099017;27;45382;-73
2022/07/17 02:28:13;;;;;;;;;2.33;2.00;;;;;24.99;32.77;102075.31;5098666;27;45340;-73
2022/07/17 02:30:38;;;;;;;;;2.00;2.00;;;;;25.00;32.71;102080.63;5079717;27;46045;-72
2022/07/17 02:33:04;;;;;;;;;2.00;2.00;;;;;24.85;32.70;102068.28;5098331;27;45418;-72
2022/07/17 02:35:29;;;;;;;;;1.33;1.33;;;;;24.95;32.71;102085.63;5098220;27;46229;-74
2022/07/17 02:37:54;;;;;;;;;5.00;2.00;;;;;24.90;32.83;102084.28;5097878;27;45453;-73
2022/07/17 02:40:20;;;;;;;;;4.00;3.00;;;;;24.83;33.06;102086.66;5098268;27;46658;-73
2022/07/17 02:42:45;;;;;;;;;1.67;1.67;;;;;24.80;33.50;102082.31;5098167;27;45515;-73
2022/07/17 02:45:10;;;;;;;;;3.67;3.67;;;;;24.69;33.77;102074.16;5098388;27;45489;-73
2022/07/17 02:47:37;;;;;;;;;3.33;2.33;;;;;24.49;33.27;102043.09;5080330;27;45416;-73
2022/07/17 02:50:08;;;;;;;;;3.00;3.00;;;;;24.73;33.85;102081.09;5097547;27;46376;-73
2022/07/17 02:52:33;;;;;;;;;3.33;3.00;;;;;24.68;33.35;102074.25;5097573;27;45640;-73
2022/07/17 02:54:59;;;;;;;;;6.33;5.00;;;;;24.68;33.55;102086.06;5098015;27;45454;-73
2022/07/17 02:57:24;;;;;;;;;5.67;5.33;;;;;24.65;34.05;102083.56;5098238;27;45484;-73
2022/07/17 02:59:49;;;;;;;;;5.67;4.67;;;;;24.65;33.51;102080.84;5097191;27;46547;-73
2022/07/17 03:02:15;;;;;;;;;5.00;5.00;;;;;24.63;33.27;102085.56;5097349;27;45423;-73
2022/07/17 03:04:40;;;;;;;;;5.33;3.67;;;;;24.59;33.39;102082.22;5098304;27;45453;-73
2022/07/17 03:07:06;;;;;;;;;6.00;6.00;;;;;24.49;34.04;102061.28;5098226;27;45494;-73
2022/07/17 03:09:31;;;;;;;;;5.00;5.00;;;;;24.55;34.11;102080.72;5097434;27;46193;-73
2022/07/17 03:11:57;;;;;;;;;4.67;4.67;;;;;24.51;33.68;102079.25;5097705;27;45449;-73
2022/07/17 03:14:22;;;;;;;;;4.00;4.00;;;;;24.44;33.54;102072.53;5097189;27;46009;-73
2022/07/17 03:16:48;;;;;;;;;6.33;3.33;;;;;24.49;33.70;102070.34;5097998;27;45933;-73
2022/07/17 03:19:13;;;;;;;;;6.00;6.00;;;;;24.52;33.96;102074.69;5097443;27;47199;-73
2022/07/17 03:21:38;;;;;;;;;4.00;4.00;;;;;24.49;34.08;102081.25;5079128;27;45391;-73
2022/07/17 03:24:04;;;;;;;;;7.00;7.00;;;;;24.50;33.68;102080.25;5097902;27;45469;-73
2022/07/17 03:26:29;;;;;;;;;5.33;5.33;;;;;24.49;34.11;102085.81;5098313;27;45529;-73
2022/07/17 03:28:55;;;;;;;;;6.00;5.00;;;;;24.47;34.03;102083.25;5096889;27;46205;-73
2022/07/17 03:31:20;;;;;;;;;7.33;4.67;;;;;24.46;34.04;102092.34;5097376;27;45478;-73
2022/07/17 03:33:46;;;;;;;;;6.00;6.00;;;;;24.44;33.77;102091.59;5078735;27;45455;-73
2022/07/17 03:36:11;;;;;;;;;5.67;5.67;;;;;24.40;34.18;102092.88;5097125;27;45596;-73
2022/07/17 03:38:36;;;;;;;;;6.00;6.00;;;;;24.37;33.86;102102.16;5096918;27;46128;-73
2022/07/17 03:41:02;;;;;;;;;8.33;8.33;;;;;24.32;34.52;102098.91;5097117;27;45478;-73
2022/07/17 03:43:27;;;;;;;;;9.00;9.00;;;;;24.28;34.38;102102.91;5097004;27;45424;-73
2022/07/17 03:45:52;;;;;;;;;13.33;12.00;;;;;24.26;34.57;102102.16;5097378;27;45412;-72
2022/07/17 03:48:18;;;;;;;;;14.33;14.33;;;;;24.25;34.20;102103.13;5096467;27;45566;-73
2022/07/17 03:50:43;;;;;;;;;13.33;12.67;;;;;24.18;34.21;102100.03;5096987;27;45474;-73
2022/07/17 03:53:09;;;;;;;;;13.33;12.00;;;;;24.19;34.45;102111.81;5097293;27;45364;-73
2022/07/17 03:55:34;;;;;;;;;13.33;13.33;;;;;24.20;34.78;102102.63;5097864;27;45374;-73
2022/07/17 03:58:00;;;;;;;;;14.00;13.33;;;;;24.14;34.38;102095.84;5096680;27;46200;-73
2022/07/17 04:00:26;;;;;;;;;14.67;10.67;;;;;24.20;34.33;102105.38;5097120;27;45445;-73
2022/07/17 04:02:51;;;;;;;;;9.00;9.00;;;;;24.17;34.49;102098.31;5097324;27;45602;-73
2022/07/17 04:05:17;;;;;;;;;16.00;11.33;;;;;24.08;34.32;102079.97;5097198;27;45496;-73
2022/07/17 04:07:43;;;;;;;;;6.00;6.00;;;;;24.08;34.58;102084.56;5096761;27;47426;-73
2022/07/17 04:10:10;;;;;;;;;6.33;5.00;;;;;24.14;35.02;102093.13;5078716;27;45556;-73
2022/07/17 04:12:36;;;;;;;;;4.00;4.00;;;;;24.15;34.47;102097.56;5096067;27;45457;-73
2022/07/17 04:15:03;;;;;;;;;6.00;6.00;;;;;24.03;34.71;102087.66;5096898;27;45491;-73
2022/07/17 04:17:29;;;;;;;;;5.00;5.00;;;;;24.12;34.94;102103.25;5096331;27;45415;-73
2022/07/17 04:19:54;;;;;;;;;5.00;4.33;;;;;24.10;34.62;102104.38;5096558;27;45391;-73
2022/07/17 04:22:19;;;;;;;;;4.00;4.00;;;;;24.07;34.71;102121.84;5096530;27;45954;-73
2022/07/17 04:24:45;;;;;;;;;5.00;4.00;;;;;24.01;35.05;102123.16;5097029;27;45509;-73
2022/07/17 04:27:10;;;;;;;;;6.67;5.67;;;;;23.95;34.98;102130.94;5096192;27;47329;-73
2022/07/17 04:29:36;;;;;;;;;4.67;3.67;;;;;23.90;35.49;102130.44;5096189;27;45520;-73
2022/07/17 04:32:02;;;;;;;;;3.33;3.33;;;;;23.79;35.07;102126.72;5096386;27;45424;-73
2022/07/17 04:34:28;;;;;;;;;4.00;3.00;;;;;23.80;35.28;102135.75;5096963;27;45447;-73
2022/07/17 04:36:54;;;;;;;;;6.00;3.00;;;;;23.79;35.35;102136.75;5095822;27;46540;-72
2022/07/17 04:39:20;;;;;;;;;4.00;3.00;;;;;23.78;34.93;102144.03;5096086;27;45417;-73
2022/07/17 04:41:45;;;;;;;;;7.00;4.00;;;;;23.69;35.11;102127.50;5096071;27;45360;-73
2022/07/17 04:44:11;;;;;;;;;5.67;3.00;;;;;23.79;35.52;102162.13;5079671;27;45391;-73
2022/07/17 04:46:36;;;;;;;;;2.00;2.00;;;;;23.74;35.83;102161.59;5095326;27;46258;-73
2022/07/17 04:49:02;;;;;;;;;3.00;3.00;;;;;23.70;35.54;102160.06;5095732;27;45565;-72
2022/07/17 04:51:27;;;;;;;;;2.00;2.00;;;;;23.70;35.44;102172.81;5096018;27;45360;-72
2022/07/17 04:53:52;;;;;;;;;5.00;2.33;;;;;23.65;36.23;102169.56;5096301;27;45561;-73
2022/07/17 04:56:18;;;;;;;;;3.33;2.00;;;;;23.63;35.97;102166.09;5096304;27;46005;-73
2022/07/17 04:58:43;;;;;;;;;3.00;3.00;;;;;23.68;36.02;102166.63;5077762;27;45433;-73
2022/07/17 05:01:08;;;;;;;;;2.00;1.67;;;;;23.64;35.54;102152.34;5094199;27;45432;-73
2022/07/17 05:03:34;;;;;;;;;1.00;1.00;;;;;23.74;35.46;102161.59;5078455;27;45391;-73
2022/07/17 05:05:59;;;;;;;;;2.00;1.00;;;;;23.75;35.71;102170.63;5096286;27;46428;-73
2022/07/17 05:08:24;;;;;;;;;3.00;1.67;;;;;23.76;35.75;102165.09;5095717;27;45517;-78
2022/07/17 05:10:50;;;;;;;;;4.00;2.67;;;;;23.74;35.42;102167.06;5091069;27;46799;-76
2022/07/17 05:13:15;;;;;;;;;2.00;2.00;;;;;23.78;35.45;102162.22;5095228;27;45585;-72
2022/07/17 05:15:41;;;;;;;;;2.00;2.00;;;;;23.82;35.34;102158.28;5093077;27;45516;-73
2022/07/17 05:18:07;;;;;;;;;4.00;2.00;;;;;23.82;35.77;102162.88;5094624;27;45780;-74
2022/07/17 05:20:33;;;;;;;;;2.00;2.00;;;;;23.80;35.30;102161.13;5095453;27;45588;-72
2022/07/17 05:22:58;;;;;;;;;1.00;1.00;;;;;23.86;35.13;102172.50;5096341;27;45505;-73
2022/07/17 05:25:25;;;;;;;;;1.33;1.33;;;;;23.79;34.98;102159.41;5077267;27;47836;-73
2022/07/17 05:27:50;;;;;;;;;1.50;1.50;;;;;23.83;35.59;102168.19;5096105;27;45541;-72
2022/07/17 05:30:16;;;;;;;;;3.00;2.00;;;;;23.83;35.83;102173.63;5095644;27;45513;-73
2022/07/17 05:32:41;;;;;;;;;1.67;1.33;;;;;23.77;35.40;102153.19;5074594;27;45455;-77
2022/07/17 05:35:07;;;;;;;;;4.00;2.00;;;;;23.93;35.26;102166.50;5089853;27;45502;-78
2022/07/17 05:37:33;;;;;;;;;3.67;1.00;;;;;23.94;35.48;102170.06;5093600;27;45509;-73
2022/07/17 05:39:58;;;;;;;;;2.00;2.00;;;;;23.99;36.26;102162.41;5094954;27;45410;-73
2022/07/17 05:42:24;;;;;;;;;3.33;3.00;;;;;23.98;36.49;102171.59;5095785;27;45408;-76
2022/07/17 05:44:49;;;;;;;;;4.00;3.33;;;;;23.95;36.25;102166.34;5093353;27;46336;-72
2022/07/17 05:47:14;;;;;;;;;1.00;1.00;;;;;23.97;37.53;102173.41;5094747;27;45377;-76
2022/07/17 05:49:40;;;;;;;;;3.00;2.00;;;;;23.83;37.18;102148.25;5094948;27;45689;-77
2022/07/17 05:52:05;;;;;;;;;1.33;1.33;;;;;24.01;38.89;102176.78;5095145;27;45504;-73
2022/07/17 05:54:32;;;;;;;;;1.00;1.00;;;;;24.00;36.63;102178.66;5091680;27;46376;-71
2022/07/17 05:56:58;;;;;;;;;1.67;1.67;;;;;24.02;36.43;102179.41;5094003;27;45516;-71
2022/07/17 05:59:23;;;;;;;;;2.00;2.00;;;;;24.01;37.04;102171.34;5093376;27;45635;-69
2022/07/17 06:01:49;;;;;;;;;3.67;3.67;;;;;23.98;36.88;102163.41;5094562;27;45485;-69
2022/07/17 06:04:14;;;;;;;;;2.33;2.33;;;;;24.15;37.26;102184.75;5092950;27;46467;-70
2022/07/17 06:06:39;;;;;;;;;1.00;1.00;;;;;24.10;37.30;102178.78;5075054;27;45482;-70
2022/07/17 06:09:05;;;;;;;;;56.00;44.75;;;;;24.15;36.40;102181.16;5094030;27;45490;-70
2022/07/17 06:11:30;;;;;;;;;17.33;12.00;;;;;24.16;38.42;102181.03;5095287;27;45549;-69
2022/07/17 06:13:56;;;;;;;;;3.67;3.67;;;;;24.12;36.87;102179.53;5079684;27;47596;-69
2022/07/17 06:16:21;;;;;;;;;2.33;2.33;;;;;24.16;38.68;102172.88;5095310;27;45484;-68
2022/07/17 06:18:46;;;;;;;;;2.00;2.00;;;;;24.15;36.62;102165.66;5097849;27;45418;-69
2022/07/17 06:21:12;;;;;;;;;2.33;2.00;;;;;24.20;35.65;102177.06;5098640;27;45492;-69
2022/07/17 06:23:37;;;;;;;;;2.00;2.00;;;;;24.23;38.29;102178.69;5097805;27;50823;-69
2022/07/17 06:26:02;;;;;;;;;3.67;3.67;;;;;24.28;37.20;102175.59;5097991;27;45494;-69
2022/07/17 06:28:28;;;;;;;;;2.33;2.33;;;;;24.27;36.57;102158.38;5098461;27;45461;-69
2022/07/17 06:30:53;;;;;;;;;3.33;2.00;;;;;24.41;36.98;102179.94;5098157;27;45425;-69
2022/07/17 06:33:18;;;;;;;;;4.33;3.00;;;;;24.46;37.10;102176.00;5079584;27;47192;-69
2022/07/17 06:35:44;;;;;;;;;2.00;2.00;;;;;24.43;36.16;102147.13;5079877;27;46641;-69
2022/07/17 06:38:10;;;;;;;;;1.00;1.00;;;;;24.58;37.62;102169.59;5097703;27;45323;-69
2022/07/17 06:40:36;;;;;;;;;2.00;1.67;;;;;24.61;36.81;102161.19;5098182;27;45594;-68
2022/07/17 06:43:01;;;;;;;;;4.67;2.67;;;;;24.59;36.47;102146.81;5097728;27;46386;-68
2022/07/17 06:45:26;;;;;;;;;1.00;1.00;;;;;24.65;37.12;102149.00;5097732;27;45612;-68
2022/07/17 06:47:52;;;;;;;;;4.00;4.00;;;;;24.74;36.16;102155.56;5098090;27;45565;-69
2022/07/17 06:50:17;;;;;;;;;3.33;2.00;;;;;24.67;35.67;102138.84;5098087;27;45500;-69
2022/07/17 06:52:42;;;;;;;;;2.67;2.67;;;;;24.79;35.12;102145.16;5079014;27;46441;-68
2022/07/17 06:55:08;;;;;;;;;2.00;2.00;;;;;24.79;35.66;102135.09;5097595;27;45482;-69
2022/07/17 06:57:33;;;;;;;;;4.67;2.00;;;;;24.98;35.35;102163.59;5097702;27;45601;-69
2022/07/17 06:59:59;;;;;;;;;2.00;2.00;;;;;24.96;34.62;102141.94;5097800;27;45622;-69
2022/07/17 07:02:24;;;;;;;;;2.00;2.00;;;;;25.06;36.69;102159.25;5097145;27;62417;-69
2022/07/17 07:04:49;;;;;;;;;3.00;3.00;;;;;25.05;36.12;102152.06;5097400;27;45481;-69
2022/07/17 07:07:14;;;;;;;;;2.00;2.00;;;;;25.06;35.34;102150.22;5097308;27;45422;-69
2022/07/17 07:09:40;;;;;;;;;3.00;2.00;;;;;25.19;35.25;102164.59;5097792;27;45647;-69
2022/07/17 07:12:07;;;;;;;;;2.67;2.67;;;;;25.26;35.21;102157.63;5097364;27;46312;-69
2022/07/17 07:14:32;;;;;;;;;2.00;2.00;;;;;25.25;35.10;102141.38;5097321;27;45498;-68
2022/07/17 07:16:57;;;;;;;;;1.33;1.33;;;;;25.41;34.38;102160.06;5079043;27;45890;-69
2022/07/17 07:19:23;;;;;;;;;1.33;1.33;;;;;25.41;34.12;102151.88;5097149;27;45556;-68
2022/07/17 07:21:48;;;;;;;;;2.67;2.00;;;;;25.57;33.71;102165.09;5078827;27;45978;-68
2022/07/17 07:24:13;;;;;;;;;1.00;1.00;;;;;25.60;34.31;102154.78;5096549;27;45489;-69
2022/07/17 07:26:39;;;;;;;;;3.00;3.00;;;;;25.73;34.03;102159.19;5097189;27;45614;-68
2022/07/17 07:29:04;;;;;;;;;3.00;3.00;;;;;25.80;33.60;102163.13;5097391;27;45504;-68
2022/07/17 07:31:29;;;;;;;;;2.00;2.00;;;;;25.88;34.23;102157.91;5096906;27;46307;-68
2022/07/17 07:33:55;;;;;;;;;1.00;1.00;;;;;25.93;33.59;102152.03;5097172;27;45508;-68
2022/07/17 07:36:20;;;;;;;;;1.00;1.00;;;;;25.98;33.28;102156.09;5072831;27;45447;-70
2022/07/17 07:38:45;;;;;;;;;21.67;17.33;;;;;25.99;32.86;102149.66;5097063;27;45598;-70
2022/07/17 07:41:11;;;;;;;;;4.33;3.67;;;;;26.01;33.16;102153.13;5096715;27;46157;-69
2022/07/17 07:43:37;;;;;;;;;2.67;2.00;;;;;26.04;32.64;102152.84;5097025;27;45497;-69
2022/07/17 07:46:03;;;;;;;;;2.00;2.00;;;;;26.09;32.42;102149.72;5096830;27;45433;-69
2022/07/17 07:48:29;;;;;;;;;2.67;2.00;;;;;26.10;32.86;102146.81;5078956;27;45431;-69
2022/07/17 07:50:54;;;;;;;;;1.00;1.00;;;;;26.14;32.45;102152.91;5096154;27;46375;-69
2022/07/17 07:53:19;;;;;;;;;2.00;1.67;;;;;26.18;33.26;102150.78;5078317;27;46280;-69
2022/07/17 07:55:45;;;;;;;;;4.33;2.00;;;;;26.23;33.13;102134.81;5078791;27;45517;-70
2022/07/17 07:58:12;;;;;;;;;1.67;1.00;;;;;26.39;32.92;102145.28;5095672;27;45654;-69
2022/07/17 08:00:39;;;;;;;;;1.00;1.00;;;;;26.49;32.16;102148.91;5096405;27;46080;-69
2022/07/17 08:03:05;;;;;;;;;1.00;1.00;;;;;26.56;32.56;102149.28;5096461;27;45739;-70
2022/07/17 08:05:31;;;;;;;;;2.33;2.33;;;;;26.60;31.67;102146.13;5078301;27;45637;-70
2022/07/17 08:07:57;;;;;;;;;2.00;2.00;;;;;26.61;31.57;102142.38;5096771;27;45508;-72
2022/07/17 08:10:23;;;;;;;;;4.00;2.67;;;;;26.67;31.45;102150.03;5096410;27;46189;-73
2022/07/17 08:12:48;;;;;;;;;2.67;2.33;;;;;26.76;31.09;102148.31;5096234;27;45555;-72
2022/07/17 08:15:17;;;;;;;;;2.00;2.00;;;;;26.84;31.78;102145.75;5096761;27;45718;-73
2022/07/17 08:17:43;;;;;;;;;2.00;2.00;;;;;26.92;31.40;102148.66;5096830;27;45434;-72
2022/07/17 08:20:09;;;;;;;;;3.00;2.00;;;;;27.08;31.40;102155.47;5096194;27;46499;-73
2022/07/17 08:22:34;;;;;;;;;1.33;1.33;;;;;27.19;31.33;102151.75;5096387;27;45340;-72
2022/07/17 08:24:59;;;;;;;;;2.00;2.00;;;;;27.30;30.01;102154.38;5096192;27;45400;-72
2022/07/17 08:27:25;;;;;;;;;2.00;2.00;;;;;27.33;30.29;102152.22;5096540;27;45549;-72
2022/07/17 08:29:50;;;;;;;;;2.00;2.00;;;;;27.42;29.89;102156.00;5096434;27;46517;-72
2022/07/17 08:32:15;;;;;;;;;3.33;2.00;;;;;27.52;30.22;102150.53;5077457;27;45440;-72
2022/07/17 08:34:41;;;;;;;;;2.00;2.00;;;;;27.63;29.35;102153.13;5077688;27;45371;-72
2022/07/17 08:37:06;;;;;;;;;1.67;1.67;;;;;27.75;28.53;102157.44;5095654;27;45511;-72
2022/07/17 08:39:31;;;;;;;;;2.67;2.00;;;;;27.87;28.84;102157.31;5095685;27;50327;-72
2022/07/17 08:41:57;;;;;;;;;2.00;2.00;;;;;27.96;28.46;102157.31;5096153;27;45767;-72
2022/07/17 08:44:22;;;;;;;;;1.00;1.00;;;;;28.06;28.38;102149.06;5096131;27;45433;-72
2022/07/17 08:46:48;;;;;;;;;2.00;2.00;;;;;28.19;28.15;102146.88;5096244;27;45692;-72
2022/07/17 08:49:13;;;;;;;;;2.00;2.00;;;;;28.36;28.45;102152.59;5095850;27;45976;-72
2022/07/17 08:51:39;;;;;;;;;1.33;1.33;;;;;29.16;27.68;102141.97;5095955;27;45540;-72
2022/07/17 08:54:04;;;;;;;;;3.00;1.67;;;;;29.93;26.36;102132.25;5095882;27;45438;-72
2022/07/17 08:56:29;;;;;;;;;1.67;1.67;;;;;31.35;25.81;102142.72;5096280;27;45494;-71
2022/07/17 08:58:55;;;;;;;;;4.67;1.00;;;;;32.41;23.46;102143.75;5095650;27;46573;-72
2022/07/17 09:01:22;;;;;;;;;1.00;1.00;;;;;34.21;22.17;102135.16;5095344;27;45423;-72
2022/07/17 09:04:06;;;;;;;;;5.00;2.00;;;;;36.40;20.24;102144.16;5077447;27;45414;-72
2022/07/17 09:06:33;;;;;;;;;2.33;1.00;;;;;38.10;17.67;102142.31;5095886;27;45472;-70
2022/07/17 09:09:06;;;;;;;;;2.00;1.00;;;;;39.45;17.22;102138.75;5095280;27;45378;-71
2022/07/17 09:11:50;;;;;;;;;1.00;1.00;;;;;40.47;16.78;102144.94;5095702;27;45838;-70
2022/07/17 09:14:15;;;;;;;;;1.00;1.00;;;;;41.23;15.16;102150.22;5095545;27;45575;-70
2022/07/17 09:16:55;;;;;;;;;2.00;1.00;;;;;42.09;15.36;102146.00;5095544;27;45616;-70
2022/07/17 09:19:35;;;;;;;;;2.00;2.00;;;;;42.43;15.61;102150.97;5095157;27;47264;-70
2022/07/17 09:22:24;;;;;;;;;0.67;0.67;;;;;43.00;13.93;102149.13;5095288;27;45484;-70
2022/07/17 09:24:58;;;;;;;;;1.00;1.00;;;;;43.98;13.36;102143.28;5095430;27;45449;-71
2022/07/17 09:27:23;;;;;;;;;1.33;1.33;;;;;44.89;13.25;102156.13;5095411;27;45454;-71
2022/07/17 09:29:54;;;;;;;;;4.33;2.33;;;;;45.12;12.36;102159.72;5095277;27;46763;-71
2022/07/17 09:32:21;;;;;;;;;2.00;2.00;;;;;44.86;12.22;102162.25;5095109;27;45453;-69
2022/07/17 09:34:48;;;;;;;;;1.33;1.33;;;;;45.47;12.46;102160.09;5095412;27;45513;-69
2022/07/17 09:37:13;;;;;;;;;2.00;2.00;;;;;46.32;12.14;102154.53;5095534;27;45473;-69
2022/07/17 09:39:39;;;;;;;;;2.00;2.00;;;;;46.79;12.34;102157.63;5095001;27;46096;-69
2022/07/17 09:42:05;;;;;;;;;0.67;0.67;;;;;47.55;11.58;102154.09;5095400;27;45532;-69
2022/07/17 09:44:31;;;;;;;;;1.00;1.00;;;;;48.23;10.51;102150.91;5095110;27;45418;-69
2022/07/17 09:46:57;;;;;;;;;1.00;1.00;;;;;48.08;10.45;102151.78;5095954;27;45659;-69
2022/07/17 09:49:26;;;;;;;;;1.00;1.00;;;;;48.20;10.13;102152.28;5098723;27;45483;-69
2022/07/17 09:51:53;;;;;;;;;2.67;2.33;;;;;48.74;11.19;102164.03;5098781;27;45446;-69
2022/07/17 09:54:21;;;;;;;;;2.00;2.00;;;;;49.06;10.97;102159.88;5098721;27;45415;-69
2022/07/17 09:56:50;;;;;;;;;2.00;1.00;;;;;49.23;10.84;102169.66;5099019;27;45524;-69
2022/07/17 09:59:17;;;;;;;;;1.00;1.00;;;;;49.49;10.40;102166.66;5097995;27;47347;-70
2022/07/17 10:01:44;;;;;;;;;0.67;0.67;;;;;49.88;10.60;102162.03;5098441;27;45621;-70
2022/07/17 10:04:11;;;;;;;;;0.33;0.33;;;;;50.05;9.36;102159.63;5098604;27;45538;-70
2022/07/17 10:06:36;;;;;;;;;1.00;1.00;;;;;50.32;9.08;102161.88;5098803;27;45462;-72
2022/07/17 10:09:05;;;;;;;;;3.33;2.33;;;;;50.42;8.86;102161.78;5098082;27;47049;-73
2022/07/17 10:11:32;;;;;;;;;1.00;1.00;;;;;50.46;9.34;102160.03;5098389;27;45511;-73
2022/07/17 10:14:08;;;;;;;;;3.00;3.00;;;;;50.51;8.85;102170.47;5098241;27;45459;-73
2022/07/17 10:16:36;;;;;;;;;0.67;0.00;;;;;50.63;8.75;102172.84;5098893;27;45431;-73
2022/07/17 10:19:02;;;;;;;;;1.00;1.00;;;;;50.45;8.35;102175.34;5081319;27;46198;-73
2022/07/17 10:21:30;;;;;;;;;1.00;1.00;;;;;50.36;8.77;102159.28;5098106;27;45513;-74
2022/07/17 10:23:55;;;;;;;;;1.00;1.00;;;;;50.32;9.84;102169.53;5080089;27;45565;-73
2022/07/17 10:26:38;;;;;;;;;1.00;1.00;;;;;49.92;8.93;102183.00;5098452;27;45464;-73
2022/07/17 10:29:08;;;;;;;;;2.00;1.00;;;;;49.60;10.31;102185.25;5081288;27;45788;-73
2022/07/17 10:31:34;;;;;;;;;1.00;1.00;;;;;49.41;10.41;102165.31;5097881;27;45755;-73
2022/07/17 10:34:05;;;;;;;;;1.00;1.00;;;;;49.15;10.35;102183.59;5098152;27;45790;-73
2022/07/17 10:36:42;;;;;;;;;0.67;0.67;;;;;48.67;10.33;102177.66;5098335;27;45519;-73
2022/07/17 10:39:20;;;;;;;;;0.33;0.33;;;;;48.14;11.02;102164.78;5080616;27;47605;-73
2022/07/17 10:41:57;;;;;;;;;0.67;0.00;;;;;47.69;11.36;102143.91;5097822;27;45474;-73
2022/07/17 10:44:27;;;;;;;;;0.00;0.00;;;;;47.30;11.73;102155.75;5097672;27;45378;-73
2022/07/17 10:46:54;;;;;;;;;1.00;1.00;;;;;46.87;12.27;102140.13;5098109;27;45581;-73
2022/07/17 10:49:20;;;;;;;;;3.00;2.00;;;;;46.29;12.33;102129.72;5097627;27;45508;-72
2022/07/17 10:51:48;;;;;;;;;6.00;3.33;;;;;45.20;13.39;102140.41;5097848;27;45453;-73
2022/07/17 10:54:14;;;;;;;;;3.00;3.00;;;;;44.92;14.12;102144.31;5097627;27;45486;-73
2022/07/17 10:56:40;;;;;;;;;2.33;2.33;;;;;44.67;12.39;102142.03;5098042;27;45603;-73
2022/07/17 10:59:06;;;;;;;;;2.00;1.67;;;;;44.36;13.74;102138.78;5096418;27;46434;-73
2022/07/17 11:01:32;;;;;;;;;2.00;2.00;;;;;44.06;14.00;102142.03;5079291;27;45552;-73
2022/07/17 11:04:01;;;;;;;;;2.00;2.00;;;;;43.70;13.00;102135.00;5097512;27;45391;-73
2022/07/17 11:06:37;;;;;;;;;2.33;2.33;;;;;43.29;14.28;102128.63;5097812;27;45426;-73
2022/07/17 11:09:08;;;;;;;;;1.00;1.00;;;;;42.78;14.88;102123.72;5082059;27;47247;-69
2022/07/17 11:11:41;;;;;;;;;4.00;2.00;;;;;42.00;15.38;102130.66;5097137;27;45389;-69
2022/07/17 11:14:18;;;;;;;;;2.00;2.00;;;;;41.32;16.05;102126.38;5097258;27;45380;-70
2022/07/17 11:17:01;;;;;;;;;3.33;2.00;;;;;40.71;15.79;102117.97;5097717;27;45445;-70
2022/07/17 11:19:38;;;;;;;;;1.00;1.00;;;;;40.28;17.06;102126.47;5097336;27;46043;-70
2022/07/17 11:22:05;;;;;;;;;1.67;1.67;;;;;39.71;15.63;102131.25;5097039;27;45385;-70